createdAt,value
2023-05-10T00:01:55.770Z,14.00
2023-05-10T00:04:23.424Z,14.20
2023-05-10T00:06:51.283Z,14.20
2023-05-10T00:09:56.276Z,14.20
2023-05-10T00:19:28.068Z,14.00
2023-05-10T00:21:55.580Z,13.90
2023-05-10T00:24:23.108Z,13.90
2023-05-10T00:26:50.771Z,13.80
2023-05-10T00:29:18.264Z,13.80
2023-05-10T00:31:45.844Z,13.90
2023-05-10T00:36:59.255Z,13.90
2023-05-10T00:39:27.843Z,14.00
2023-05-10T00:41:55.723Z,13.80
2023-05-10T00:44:23.261Z,13.90
2023-05-10T00:46:51.133Z,13.80
2023-05-10T00:49:18.950Z,13.70
2023-05-10T00:51:47.373Z,13.70
2023-05-10T00:54:16.512Z,13.70
2023-05-10T00:56:49.791Z,13.60
2023-05-10T00:59:18.910Z,13.70
2023-05-10T01:01:47.179Z,13.70
2023-05-10T01:04:16.231Z,13.80
2023-05-10T01:06:44.120Z,13.80
2023-05-10T01:09:12.819Z,13.90
2023-05-10T01:11:41.472Z,13.80
2023-05-10T01:14:09.698Z,13.90
2023-05-10T01:16:39.978Z,13.80
2023-05-10T01:44:17.546Z,13.60
2023-05-10T01:46:59.216Z,13.70
2023-05-10T01:49:34.681Z,13.60
2023-05-10T01:52:08.197Z,13.70
2023-05-10T01:54:39.807Z,13.70
2023-05-10T01:57:10.981Z,13.70
2023-05-10T01:59:41.997Z,13.80
2023-05-10T02:02:13.147Z,13.80
2023-05-10T02:04:42.318Z,13.80
2023-05-10T02:07:10.828Z,13.60
2023-05-10T02:09:39.471Z,13.60
2023-05-10T02:12:08.230Z,13.60
2023-05-10T02:14:38.345Z,13.60
2023-05-10T02:17:07.253Z,13.70
2023-05-10T02:19:37.129Z,13.60
2023-05-10T02:22:05.528Z,13.60
2023-05-10T02:24:34.828Z,13.50
2023-05-10T02:27:04.744Z,13.60
2023-05-10T02:29:33.960Z,13.70
2023-05-10T02:32:02.732Z,13.60
2023-05-10T02:34:32.204Z,13.50
2023-05-10T02:37:02.459Z,13.60
2023-05-10T02:39:31.237Z,13.60
2023-05-10T02:41:59.651Z,13.70
2023-05-10T02:44:32.273Z,13.70
2023-05-10T02:47:00.095Z,13.70
2023-05-10T02:49:27.769Z,13.80
2023-05-10T02:52:02.446Z,13.70
2023-05-10T02:54:34.224Z,13.60
2023-05-10T02:57:04.997Z,13.70
2023-05-10T02:59:33.815Z,13.80
2023-05-10T03:02:03.311Z,13.60
2023-05-10T03:04:30.989Z,13.60
2023-05-10T03:06:58.655Z,13.70
2023-05-10T03:09:26.264Z,13.70
2023-05-10T03:12:13.098Z,13.60
2023-05-10T03:14:43.585Z,13.60
2023-05-10T03:17:19.319Z,13.70
2023-05-10T03:19:58.971Z,13.70
2023-05-10T03:22:48.474Z,13.70
2023-05-10T03:25:17.944Z,13.50
2023-05-10T03:27:46.336Z,13.40
2023-05-10T03:30:15.173Z,13.40
2023-05-10T03:32:42.903Z,13.40
2023-05-10T03:35:11.632Z,13.40
2023-05-10T03:37:39.203Z,13.40
2023-05-10T03:40:07.520Z,13.50
2023-05-10T03:42:35.157Z,13.50
2023-05-10T03:45:02.752Z,13.50
2023-05-10T03:47:30.905Z,13.40
2023-05-10T03:49:58.597Z,13.40
2023-05-10T03:52:26.553Z,13.50
2023-05-10T03:54:54.219Z,13.60
2023-05-10T03:57:21.732Z,13.60
2023-05-10T03:59:49.934Z,13.50
2023-05-10T04:02:17.503Z,13.40
2023-05-10T04:04:45.055Z,13.30
2023-05-10T04:07:12.828Z,13.30
2023-05-10T04:09:40.320Z,13.40
2023-05-10T04:12:10.735Z,13.40
2023-05-10T04:14:38.560Z,13.60
2023-05-10T04:17:06.821Z,13.40
2023-05-10T04:19:34.705Z,13.50
2023-05-10T04:22:03.853Z,13.40
2023-05-10T04:24:31.337Z,13.30
2023-05-10T04:26:58.782Z,13.40
2023-05-10T04:29:26.329Z,13.20
2023-05-10T04:31:54.592Z,13.00
2023-05-10T04:34:22.477Z,13.10
2023-05-10T04:36:50.106Z,13.10
2023-05-10T04:39:17.621Z,13.10
2023-05-10T04:41:45.116Z,13.00
2023-05-10T04:44:12.672Z,12.80
2023-05-10T04:46:40.321Z,12.90
2023-05-10T04:49:08.016Z,13.10
2023-05-10T04:51:35.571Z,13.10
2023-05-10T04:54:06.964Z,13.20
2023-05-10T04:56:34.766Z,13.20
2023-05-10T04:59:02.454Z,13.20
2023-05-10T05:01:29.985Z,13.20
2023-05-10T05:03:57.835Z,13.20
2023-05-10T05:06:26.293Z,13.30
2023-05-10T05:08:53.894Z,13.40
2023-05-10T05:11:22.173Z,13.60
2023-05-10T05:13:49.726Z,13.60
2023-05-10T05:16:17.844Z,13.70
2023-05-10T05:18:45.473Z,13.80
2023-05-10T05:21:19.837Z,13.90
2023-05-10T05:23:47.710Z,13.80
2023-05-10T05:26:16.146Z,13.80
2023-05-10T05:28:43.805Z,13.90
2023-05-10T05:31:30.064Z,13.90
2023-05-10T05:33:57.701Z,14.00
2023-05-10T05:36:25.612Z,14.10
2023-05-10T05:38:53.174Z,14.20
2023-05-10T05:41:21.408Z,14.20
2023-05-10T05:43:48.814Z,14.00
2023-05-10T05:46:16.503Z,14.00
2023-05-10T05:48:44.123Z,14.10
2023-05-10T05:51:11.911Z,14.20
2023-05-10T05:53:39.399Z,14.30
2023-05-10T05:56:07.120Z,14.40
2023-05-10T05:58:34.609Z,14.50
2023-05-10T06:01:02.415Z,14.70
2023-05-10T06:03:30.121Z,14.80
2023-05-10T06:05:57.628Z,14.90
2023-05-10T06:08:25.150Z,15.20
2023-05-10T06:10:52.708Z,15.30
2023-05-10T06:13:20.168Z,15.50
2023-05-10T06:15:47.730Z,15.70
2023-05-10T06:18:15.294Z,16.00
2023-05-10T06:20:43.675Z,16.20
2023-05-10T06:23:11.124Z,16.30
2023-05-10T06:25:38.636Z,16.20
2023-05-10T06:28:06.133Z,16.20
2023-05-10T06:30:33.572Z,16.00
2023-05-10T06:33:01.388Z,15.80
2023-05-10T06:35:29.799Z,15.60
2023-05-10T06:37:57.282Z,15.40
2023-05-10T06:40:24.850Z,15.30
2023-05-10T06:42:52.551Z,15.10
2023-05-10T06:45:20.365Z,15.00
2023-05-10T06:47:48.259Z,15.20
2023-05-10T06:50:16.238Z,15.20
2023-05-10T06:52:44.175Z,15.20
2023-05-10T06:55:12.287Z,15.10
2023-05-10T06:57:39.911Z,15.10
2023-05-10T07:00:08.327Z,15.20
2023-05-10T07:02:36.062Z,15.10
2023-05-10T07:05:03.844Z,15.20
2023-05-10T07:07:31.473Z,15.10
2023-05-10T07:09:59.193Z,15.50
2023-05-10T07:12:26.840Z,15.90
2023-05-10T07:14:54.414Z,16.10
2023-05-10T07:17:22.239Z,16.30
2023-05-10T07:19:49.855Z,16.60
2023-05-10T07:22:17.930Z,16.80
2023-05-10T07:24:45.528Z,17.00
2023-05-10T07:27:14.062Z,17.10
2023-05-10T07:29:41.631Z,17.20
2023-05-10T07:32:09.265Z,16.90
2023-05-10T07:34:36.948Z,16.80
2023-05-10T07:37:04.512Z,16.60
2023-05-10T07:39:32.061Z,16.50
2023-05-10T07:41:59.694Z,16.40
2023-05-10T07:44:27.264Z,16.00
2023-05-10T07:46:54.779Z,15.70
2023-05-10T07:49:25.265Z,15.50
2023-05-10T07:51:53.038Z,15.30
2023-05-10T07:54:20.585Z,15.20
2023-05-10T07:56:48.477Z,15.00
2023-05-10T07:59:18.111Z,15.00
2023-05-10T08:01:46.067Z,14.80
2023-05-10T08:04:13.895Z,14.60
2023-05-10T08:06:41.942Z,14.60
2023-05-10T08:09:10.041Z,14.90
2023-05-10T08:11:37.560Z,14.70
2023-05-10T08:14:05.098Z,14.60
2023-05-10T08:16:33.666Z,14.70
2023-05-10T08:19:01.320Z,14.90
2023-05-10T08:21:28.990Z,15.10
2023-05-10T08:23:56.560Z,15.30
2023-05-10T08:26:24.113Z,15.40
2023-05-10T08:28:51.563Z,15.40
2023-05-10T08:31:19.430Z,15.20
2023-05-10T08:33:47.002Z,14.90
2023-05-10T08:36:16.356Z,14.80
2023-05-10T08:38:43.831Z,14.40
2023-05-10T08:41:12.264Z,14.40
2023-05-10T08:43:42.618Z,14.60
2023-05-10T08:46:11.578Z,15.10
2023-05-10T08:48:40.070Z,15.50
2023-05-10T08:51:09.335Z,15.70
2023-05-10T08:53:38.310Z,15.50
2023-05-10T08:56:06.300Z,15.40
2023-05-10T08:58:34.061Z,15.20
2023-05-10T09:01:02.408Z,15.50
2023-05-10T09:03:30.938Z,15.30
2023-05-10T09:05:58.666Z,15.30
2023-05-10T09:08:27.590Z,15.50
2023-05-10T09:10:56.457Z,15.40
2023-05-10T09:13:25.808Z,15.10
2023-05-10T09:15:54.088Z,15.00
2023-05-10T09:18:21.729Z,14.90
2023-05-10T09:20:50.067Z,14.80
2023-05-10T09:23:17.657Z,14.80
2023-05-10T09:25:45.242Z,14.90
2023-05-10T09:28:13.382Z,15.00
2023-05-10T09:30:41.505Z,15.00
2023-05-10T09:33:09.037Z,15.00
2023-05-10T09:35:37.312Z,15.20
2023-05-10T09:38:06.205Z,15.40
2023-05-10T09:40:33.850Z,15.30
2023-05-10T09:43:12.257Z,15.30
2023-05-10T09:45:42.624Z,15.40
2023-05-10T09:48:10.119Z,15.60
2023-05-10T09:50:37.844Z,15.70
2023-05-10T09:53:05.483Z,15.70
2023-05-10T09:55:46.027Z,15.60
2023-05-10T09:58:16.367Z,15.50
2023-05-10T10:00:45.552Z,15.30
2023-05-10T10:03:18.036Z,15.10
2023-05-10T10:05:47.198Z,15.20
2023-05-10T10:08:16.311Z,15.30
2023-05-10T10:10:47.315Z,15.40
2023-05-10T10:13:16.663Z,15.70
2023-05-10T10:15:45.782Z,15.80
2023-05-10T10:18:16.599Z,16.00
2023-05-10T10:20:44.307Z,16.10
2023-05-10T10:23:11.891Z,16.20
2023-05-10T10:25:39.958Z,16.30
2023-05-10T10:28:32.311Z,16.30
2023-05-10T10:31:13.817Z,16.60
2023-05-10T10:34:25.101Z,16.90
2023-05-10T10:36:52.934Z,16.80
2023-05-10T10:39:21.794Z,17.60
2023-05-10T10:41:57.302Z,17.60
2023-05-10T10:44:26.320Z,17.40
2023-05-10T10:47:24.462Z,17.30
2023-05-10T10:50:03.282Z,17.50
2023-05-10T10:52:36.098Z,17.40
2023-05-10T10:55:10.333Z,17.40
2023-05-10T10:57:51.200Z,17.30
2023-05-10T11:00:38.954Z,17.30
2023-05-10T11:03:09.776Z,17.30
2023-05-10T11:05:40.605Z,17.70
2023-05-10T11:08:31.000Z,17.60
2023-05-10T11:11:01.369Z,17.40
2023-05-10T11:13:42.220Z,17.70
2023-05-10T11:16:21.078Z,18.00
2023-05-10T11:19:05.850Z,18.20
2023-05-10T11:21:34.541Z,18.50
2023-05-10T11:24:13.658Z,18.40
2023-05-10T11:26:41.671Z,18.90
2023-05-10T11:29:09.269Z,19.10
2023-05-10T11:31:43.577Z,18.70
2023-05-10T11:34:12.392Z,17.80
2023-05-10T11:36:39.887Z,18.50
2023-05-10T11:39:07.442Z,19.40
2023-05-10T11:41:35.162Z,20.30
2023-05-10T11:44:03.414Z,19.60
2023-05-10T11:46:30.984Z,19.60
2023-05-10T11:49:03.193Z,19.50
2023-05-10T11:51:34.536Z,19.80
2023-05-10T11:54:06.505Z,20.00
2023-05-10T11:56:34.425Z,20.50
2023-05-10T11:59:03.631Z,20.80
2023-05-10T12:01:32.256Z,20.50
2023-05-10T12:04:01.470Z,20.50
2023-05-10T12:06:34.729Z,20.90
2023-05-10T12:09:08.136Z,21.50
2023-05-10T12:11:43.549Z,21.60
2023-05-10T12:14:12.407Z,21.80
2023-05-10T12:16:40.378Z,22.20
2023-05-10T12:19:08.280Z,22.80
2023-05-10T12:21:36.432Z,22.20
2023-05-10T12:24:06.500Z,21.80
2023-05-10T12:26:36.489Z,21.90
2023-05-10T12:29:15.037Z,22.00
2023-05-10T12:31:56.679Z,22.50
2023-05-10T12:34:31.458Z,22.80
2023-05-10T12:36:59.491Z,22.90
2023-05-10T12:39:27.341Z,22.70
2023-05-10T12:41:54.905Z,22.20
2023-05-10T12:44:22.502Z,21.70
2023-05-10T12:46:50.157Z,21.50
2023-05-10T12:49:20.031Z,21.60
2023-05-10T12:51:47.612Z,21.20
2023-05-10T12:54:15.250Z,21.20
2023-05-10T12:56:43.826Z,21.60
2023-05-10T12:59:11.427Z,21.60
2023-05-10T13:01:39.307Z,21.40
2023-05-10T13:04:07.033Z,21.40
2023-05-10T13:06:34.549Z,21.10
2023-05-10T13:09:02.055Z,21.00
2023-05-10T13:11:30.250Z,20.90
2023-05-10T13:13:57.903Z,21.00
2023-05-10T13:16:25.514Z,21.20
2023-05-10T13:18:53.302Z,20.90
2023-05-10T13:21:21.120Z,20.30
2023-05-10T13:23:48.658Z,20.50
2023-05-10T13:26:16.197Z,20.20
2023-05-10T13:28:47.091Z,19.60
2023-05-10T13:31:14.977Z,19.30
2023-05-10T13:33:43.427Z,19.40
2023-05-10T13:36:12.195Z,19.20
2023-05-10T13:38:39.821Z,19.00
2023-05-10T13:41:07.618Z,19.50
2023-05-10T13:43:35.175Z,19.80
2023-05-10T13:46:03.997Z,19.90
2023-05-10T13:48:31.610Z,20.10
2023-05-10T13:50:59.081Z,20.20
2023-05-10T13:53:26.650Z,20.10
2023-05-10T13:55:54.469Z,19.30
2023-05-10T13:58:22.829Z,19.50
2023-05-10T14:00:50.484Z,19.80
2023-05-10T14:03:18.228Z,20.20
2023-05-10T14:05:46.564Z,20.40
2023-05-10T14:08:14.425Z,20.50
2023-05-10T14:10:42.216Z,20.40
2023-05-10T14:13:09.737Z,19.90
2023-05-10T14:15:37.378Z,20.00
2023-05-10T14:18:05.512Z,20.00
2023-05-10T14:20:34.821Z,19.90
2023-05-10T14:23:04.557Z,20.10
2023-05-10T14:25:32.255Z,20.30
2023-05-10T14:27:59.907Z,20.40
2023-05-10T14:30:27.474Z,19.90
2023-05-10T14:32:55.384Z,19.70
2023-05-10T14:35:23.326Z,19.70
2023-05-10T14:37:51.302Z,19.90
2023-05-10T14:40:19.017Z,19.70
2023-05-10T14:42:46.556Z,19.60
2023-05-10T14:45:14.227Z,19.60
2023-05-10T14:47:41.767Z,19.60
2023-05-10T14:50:09.492Z,19.30
2023-05-10T14:52:37.552Z,19.30
2023-05-10T14:55:05.509Z,19.30
2023-05-10T14:57:33.437Z,19.40
2023-05-10T15:00:01.002Z,19.50
2023-05-10T15:02:29.179Z,19.70
2023-05-10T15:04:58.539Z,20.00
2023-05-10T15:07:26.558Z,19.50
2023-05-10T15:09:55.264Z,19.20
2023-05-10T15:12:22.797Z,19.10
2023-05-10T15:14:50.524Z,19.00
2023-05-10T15:17:18.173Z,19.20
2023-05-10T15:19:45.728Z,18.90
2023-05-10T15:22:13.241Z,18.70
2023-05-10T15:24:40.770Z,18.70
2023-05-10T15:27:08.218Z,18.40
2023-05-10T15:29:36.779Z,18.40
2023-05-10T15:32:04.619Z,18.40
2023-05-10T15:34:34.898Z,17.90
2023-05-10T15:37:03.913Z,17.80
2023-05-10T15:39:31.747Z,17.80
2023-05-10T15:41:59.988Z,17.90
2023-05-10T15:44:27.510Z,17.70
2023-05-10T15:46:55.064Z,17.70
2023-05-10T15:49:22.656Z,17.50
2023-05-10T15:51:50.161Z,17.20
2023-05-10T15:54:17.694Z,17.00
2023-05-10T15:56:45.167Z,16.90
2023-05-10T15:59:12.670Z,16.80
2023-05-10T16:01:40.413Z,16.70
2023-05-10T16:04:08.569Z,16.50
2023-05-10T16:06:38.105Z,16.60
2023-05-10T16:09:05.618Z,16.40
2023-05-10T16:11:33.316Z,16.40
2023-05-10T16:14:00.894Z,16.30
2023-05-10T16:16:28.620Z,16.00
2023-05-10T16:18:56.957Z,15.80
2023-05-10T16:21:24.703Z,15.70
2023-05-10T16:23:52.215Z,15.70
2023-05-10T16:26:19.718Z,15.80
2023-05-10T16:28:49.256Z,16.00
2023-05-10T16:31:18.887Z,16.10
2023-05-10T16:33:46.643Z,16.30
2023-05-10T16:36:14.143Z,16.40
2023-05-10T16:38:42.147Z,16.20
2023-05-10T16:41:09.721Z,16.30
2023-05-10T16:43:37.826Z,16.40
2023-05-10T16:46:11.069Z,16.20
2023-05-10T16:48:38.923Z,16.20
2023-05-10T16:51:06.474Z,16.30
2023-05-10T16:53:34.507Z,16.20
2023-05-10T16:56:02.246Z,16.30
2023-05-10T16:58:29.742Z,16.50
2023-05-10T17:00:57.284Z,16.50
2023-05-10T17:03:24.911Z,16.50
2023-05-10T17:05:52.415Z,16.40
2023-05-10T17:08:19.981Z,16.20
2023-05-10T17:10:47.639Z,16.20
2023-05-10T17:13:17.195Z,16.10
2023-05-10T17:15:47.499Z,15.90
2023-05-10T17:18:15.076Z,15.90
2023-05-10T17:20:45.239Z,15.80
2023-05-10T17:23:12.820Z,15.80
2023-05-10T17:25:42.146Z,15.70
2023-05-10T17:28:09.926Z,15.70
2023-05-10T17:30:37.632Z,15.40
2023-05-10T17:33:05.662Z,15.50
2023-05-10T17:35:33.210Z,15.50
2023-05-10T17:38:01.025Z,15.40
2023-05-10T17:40:28.539Z,15.50
2023-05-10T17:42:56.097Z,15.40
2023-05-10T17:45:23.713Z,15.30
2023-05-10T17:47:51.214Z,15.20
2023-05-10T17:50:18.935Z,15.30
2023-05-10T17:52:46.708Z,15.30
2023-05-10T17:55:14.559Z,15.40
2023-05-10T17:57:42.116Z,15.40
2023-05-10T18:00:10.403Z,15.40
2023-05-10T18:02:38.109Z,15.50
2023-05-10T18:05:06.189Z,15.60
2023-05-10T18:07:34.130Z,15.50
2023-05-10T18:10:01.618Z,15.60
2023-05-10T18:12:29.126Z,15.60
2023-05-10T18:14:56.747Z,15.70
2023-05-10T18:17:24.214Z,15.70
2023-05-10T18:19:52.105Z,15.80
2023-05-10T18:22:19.752Z,15.90
2023-05-10T18:24:47.297Z,15.90
2023-05-10T18:27:14.854Z,16.00
2023-05-10T18:29:42.462Z,15.90
2023-05-10T18:32:10.326Z,15.90
2023-05-10T18:34:37.824Z,16.00
2023-05-10T18:37:07.758Z,15.90
2023-05-10T18:39:37.089Z,16.00
2023-05-10T18:42:05.745Z,15.80
2023-05-10T18:44:33.437Z,15.80
2023-05-10T18:47:01.085Z,15.70
2023-05-10T18:49:29.490Z,15.60
2023-05-10T18:51:57.034Z,15.60
2023-05-10T18:54:24.563Z,15.60
2023-05-10T18:56:52.105Z,15.60
2023-05-10T18:59:19.637Z,15.60
2023-05-10T19:01:48.316Z,15.70
2023-05-10T19:04:17.057Z,15.70
2023-05-10T19:06:44.702Z,15.60
2023-05-10T19:09:12.206Z,15.60
2023-05-10T19:11:40.854Z,15.60
2023-05-10T19:14:08.373Z,15.60
2023-05-10T19:16:37.085Z,15.50
2023-05-10T19:19:05.014Z,15.60
2023-05-10T19:21:33.544Z,15.60
2023-05-10T19:24:01.749Z,15.50
2023-05-10T19:26:29.684Z,15.60
2023-05-10T19:28:57.841Z,15.60
2023-05-10T19:31:25.444Z,15.50
2023-05-10T19:33:53.837Z,15.50
2023-05-10T19:36:21.489Z,15.30
2023-05-10T19:38:49.177Z,15.20
2023-05-10T19:41:17.033Z,15.30
2023-05-10T19:43:44.567Z,15.40
2023-05-10T19:46:13.225Z,15.40
2023-05-10T19:48:40.913Z,15.50
2023-05-10T19:51:10.255Z,15.50
2023-05-10T19:53:38.151Z,15.60
2023-05-10T19:56:06.711Z,15.50
2023-05-10T19:58:34.459Z,15.60
2023-05-10T20:01:02.251Z,15.60
2023-05-10T20:03:29.833Z,15.60
2023-05-10T20:05:57.407Z,15.60
2023-05-10T20:08:25.490Z,15.60
2023-05-10T20:10:53.211Z,15.70
2023-05-10T20:13:20.836Z,15.70
2023-05-10T20:15:48.313Z,15.70
2023-05-10T20:18:15.787Z,15.50
2023-05-10T20:20:43.418Z,15.50
2023-05-10T20:23:10.927Z,15.40
2023-05-10T20:25:38.490Z,15.40
2023-05-10T20:28:08.193Z,15.60
2023-05-10T20:30:36.066Z,15.60
2023-05-10T20:33:04.449Z,15.60
2023-05-10T20:35:33.121Z,15.70
2023-05-10T20:38:02.205Z,15.60
2023-05-10T20:40:29.685Z,15.60
2023-05-10T20:42:57.378Z,15.60
2023-05-10T20:45:24.908Z,15.60
2023-05-10T20:47:53.604Z,15.40
2023-05-10T20:50:21.610Z,15.40
2023-05-10T20:52:51.307Z,15.40
2023-05-10T20:55:19.805Z,15.30
2023-05-10T20:57:51.304Z,15.20
2023-05-10T21:00:19.990Z,15.20
2023-05-10T21:02:47.997Z,15.20
2023-05-10T21:05:17.473Z,15.20
2023-05-10T21:07:45.053Z,15.10
2023-05-10T21:10:12.843Z,15.10
2023-05-10T21:12:40.808Z,15.20
2023-05-10T21:15:09.053Z,15.30
2023-05-10T21:17:37.158Z,15.20
2023-05-10T21:20:06.605Z,15.10
2023-05-10T21:22:35.613Z,14.80
2023-05-10T21:25:03.806Z,14.70
2023-05-10T21:27:32.204Z,14.80
2023-05-10T21:29:59.760Z,14.60
2023-05-10T21:32:27.335Z,14.50
2023-05-10T21:34:54.873Z,14.60
2023-05-10T21:37:22.333Z,14.50
2023-05-10T21:39:50.365Z,14.60
2023-05-10T21:42:18.054Z,14.60
2023-05-10T21:44:45.828Z,14.70
2023-05-10T21:47:13.328Z,14.80
2023-05-10T21:49:40.964Z,14.80
2023-05-10T21:52:08.572Z,14.80
2023-05-10T21:54:37.450Z,14.80
2023-05-10T21:57:05.023Z,14.90
2023-05-10T21:59:32.502Z,14.80
2023-05-10T22:02:00.071Z,14.40
2023-05-10T22:04:27.665Z,14.20
2023-05-10T22:06:55.159Z,13.80
2023-05-10T22:09:24.448Z,13.50
2023-05-10T22:11:52.210Z,13.40
2023-05-10T22:14:19.721Z,13.50
2023-05-10T22:16:47.212Z,13.50
2023-05-10T22:19:14.841Z,13.40
2023-05-10T22:21:42.349Z,13.40
2023-05-10T22:24:09.970Z,13.40
2023-05-10T22:26:37.592Z,13.70
2023-05-10T22:29:05.281Z,13.90
2023-05-10T22:31:32.985Z,14.20
2023-05-10T22:34:00.928Z,14.40
2023-05-10T22:36:29.208Z,14.10
2023-05-10T22:38:56.788Z,14.10
2023-05-10T22:41:24.522Z,14.10
2023-05-10T22:43:52.182Z,13.80
2023-05-10T22:46:19.923Z,13.40
2023-05-10T22:48:48.929Z,13.60
2023-05-10T22:51:16.606Z,13.90
2023-05-10T22:53:44.329Z,14.00
2023-05-10T22:56:11.990Z,13.90
2023-05-10T22:58:39.569Z,14.00
2023-05-10T23:01:07.310Z,14.00
2023-05-10T23:03:34.868Z,13.90
2023-05-10T23:06:02.358Z,14.00
2023-05-10T23:08:29.960Z,14.00
2023-05-10T23:10:57.587Z,14.10
2023-05-10T23:13:25.124Z,14.30
2023-05-10T23:15:52.887Z,14.30
2023-05-10T23:18:20.500Z,14.00
2023-05-10T23:20:48.250Z,13.70
2023-05-10T23:23:15.906Z,13.60
2023-05-10T23:25:43.428Z,13.70
2023-05-10T23:28:10.996Z,13.70
2023-05-10T23:30:38.459Z,13.60
2023-05-10T23:33:06.132Z,13.40
2023-05-10T23:35:33.709Z,13.60
2023-05-10T23:38:01.300Z,13.70
2023-05-10T23:40:28.923Z,13.60
2023-05-10T23:42:56.740Z,13.60
2023-05-10T23:45:24.217Z,13.30
2023-05-10T23:47:51.685Z,13.40
2023-05-10T23:50:19.446Z,13.20
2023-05-10T23:52:47.047Z,13.30
2023-05-10T23:55:15.340Z,13.50
2023-05-10T23:57:43.081Z,13.30
